Time;durP1;ratioP1;P1;durP2;ratioP2;P2;SDS_P1;SDS_P2;PMS_P1;PMS_P2;Temp;Humidity;BMP_temperature;BMP_pressure;BME280_temperature;BME280_humidity;BME280_pressure;Samples;Min_cycle;Max_cycle;Signal;HPM_P1;HPM_P2
2024/01/02 00:00:07;;;;;;;1501.65;999.90;;;;;;;;;;5054473;28;20039;-68
2024/01/02 00:02:34;;;;;;;1502.97;999.90;;;;;;;;;;5053586;28;20017;-68
2024/01/02 00:05:02;;;;;;;1502.80;999.90;;;;;;;;;;5043872;28;20025;-67
2024/01/02 00:07:28;;;;;;;1378.72;999.90;;;;;;;;;;5037386;28;20087;-69
2024/01/02 00:09:55;;;;;;;1398.32;999.90;;;;;;;;;;5034442;28;20021;-68
2024/01/02 00:12:22;;;;;;;1378.30;999.90;;;;;;;;;;5044917;28;20037;-68
2024/01/02 00:14:48;;;;;;;1556.00;999.90;;;;;;;;;;5055275;28;20025;-67
2024/01/02 00:17:15;;;;;;;1527.20;999.90;;;;;;;;;;5054295;28;20060;-68
2024/01/02 00:19:41;;;;;;;1501.25;999.90;;;;;;;;;;5054441;28;20071;-68
2024/01/02 00:22:08;;;;;;;1357.75;999.90;;;;;;;;;;5054449;28;20128;-68
2024/01/02 00:24:35;;;;;;;1370.68;999.90;;;;;;;;;;5053922;28;20055;-69
2024/01/02 00:27:02;;;;;;;1358.18;999.90;;;;;;;;;;5053319;28;20025;-69
2024/01/02 00:29:29;;;;;;;1496.70;999.90;;;;;;;;;;5053143;28;20021;-68
2024/01/02 00:31:55;;;;;;;1511.72;999.90;;;;;;;;;;5051862;28;20482;-69
2024/01/02 00:34:23;;;;;;;1537.93;999.90;;;;;;;;;;5061777;28;20060;-68
2024/01/02 00:36:50;;;;;;;1476.28;999.90;;;;;;;;;;5052717;28;20162;-68
2024/01/02 00:39:16;;;;;;;1385.65;999.90;;;;;;;;;;5053355;28;20024;-70
2024/01/02 00:41:43;;;;;;;1498.45;999.90;;;;;;;;;;5052820;28;20032;-69
2024/01/02 00:44:10;;;;;;;1502.53;999.90;;;;;;;;;;5052291;28;20090;-66
2024/01/02 00:46:36;;;;;;;1498.32;999.90;;;;;;;;;;5053144;28;20025;-68
2024/01/02 00:49:03;;;;;;;1503.97;999.90;;;;;;;;;;5058312;28;20036;-70
2024/01/02 00:51:29;;;;;;;1496.65;999.90;;;;;;;;;;5053174;28;20033;-69
2024/01/02 00:53:58;;;;;;;1506.93;999.90;;;;;;;;;;5053350;28;20037;-70
2024/01/02 00:56:25;;;;;;;1496.90;999.90;;;;;;;;;;5053373;28;20035;-69
2024/01/02 00:58:52;;;;;;;1499.80;999.90;;;;;;;;;;5053507;28;20385;-69
2024/01/02 01:01:19;;;;;;;1506.68;999.90;;;;;;;;;;5053532;28;20166;-69
2024/01/02 01:03:45;;;;;;;1510.55;999.90;;;;;;;;;;5055440;28;20116;-70
2024/01/02 01:06:12;;;;;;;1358.40;999.90;;;;;;;;;;5054599;28;20021;-69
2024/01/02 01:08:38;;;;;;;1360.30;999.90;;;;;;;;;;5065246;28;20028;-70
2024/01/02 01:11:05;;;;;;;1495.10;999.90;;;;;;;;;;5073265;28;20492;-70
2024/01/02 01:13:32;;;;;;;1509.00;999.90;;;;;;;;;;5058890;28;20033;-68
2024/01/02 01:15:58;;;;;;;1509.97;999.90;;;;;;;;;;5041140;28;20033;-69
2024/01/02 01:18:25;;;;;;;1499.15;999.90;;;;;;;;;;5053390;28;20025;-68
2024/01/02 01:20:51;;;;;;;1497.75;999.90;;;;;;;;;;5052952;28;20101;-68
2024/01/02 01:23:18;;;;;;;1506.40;999.90;;;;;;;;;;5053767;28;20025;-69
2024/01/02 01:25:44;;;;;;;1386.95;999.90;;;;;;;;;;5053104;28;20095;-69
2024/01/02 01:28:11;;;;;;;1509.93;999.90;;;;;;;;;;5061020;28;20013;-69
2024/01/02 01:30:38;;;;;;;1455.82;999.90;;;;;;;;;;5073195;28;20091;-69
2024/01/02 01:33:06;;;;;;;1514.72;999.90;;;;;;;;;;5073517;28;20035;-67
2024/01/02 01:35:33;;;;;;;1510.57;999.90;;;;;;;;;;5073125;28;20032;-68
2024/01/02 01:38:00;;;;;;;1370.20;999.90;;;;;;;;;;5073165;28;20044;-69
2024/01/02 01:40:26;;;;;;;1490.25;999.90;;;;;;;;;;5073442;28;20057;-67
2024/01/02 01:42:53;;;;;;;1509.75;999.90;;;;;;;;;;5072460;28;20048;-68
2024/01/02 01:45:20;;;;;;;1368.72;999.90;;;;;;;;;;5071355;28;20036;-69
2024/01/02 01:47:46;;;;;;;1484.63;999.90;;;;;;;;;;5049105;28;20389;-68
2024/01/02 01:50:13;;;;;;;1499.80;999.90;;;;;;;;;;5038011;28;20051;-68
2024/01/02 01:52:42;;;;;;;1519.22;999.90;;;;;;;;;;5047758;28;20029;-68
2024/01/02 01:55:09;;;;;;;1511.03;999.90;;;;;;;;;;5032977;28;20087;-68
2024/01/02 01:57:35;;;;;;;1510.07;999.90;;;;;;;;;;5042548;28;20103;-67
2024/01/02 02:00:04;;;;;;;1508.40;999.90;;;;;;;;;;5072819;28;20024;-69
2024/01/02 02:02:32;;;;;;;1497.10;999.90;;;;;;;;;;5072275;28;20021;-68
2024/01/02 02:04:59;;;;;;;1509.85;999.90;;;;;;;;;;5070919;28;20024;-68
2024/01/02 02:07:26;;;;;;;1502.75;999.90;;;;;;;;;;5072766;28;20025;-68
2024/01/02 02:09:52;;;;;;;1520.55;999.90;;;;;;;;;;5076541;28;20016;-68
2024/01/02 02:12:19;;;;;;;1510.25;999.90;;;;;;;;;;5069433;28;20025;-68
2024/01/02 02:14:46;;;;;;;1499.88;999.90;;;;;;;;;;5056528;28;20075;-69
2024/01/02 02:17:19;;;;;;;1519.30;999.90;;;;;;;;;;5056640;28;20385;-68
2024/01/02 02:19:46;;;;;;;1498.95;999.90;;;;;;;;;;5056704;28;20076;-68
2024/01/02 02:22:14;;;;;;;1517.28;999.90;;;;;;;;;;5056091;28;20044;-67
2024/01/02 02:24:41;;;;;;;1504.97;999.90;;;;;;;;;;5037690;28;20088;-68
2024/01/02 02:27:08;;;;;;;1501.55;999.90;;;;;;;;;;5036469;28;20040;-68
2024/01/02 02:29:35;;;;;;;1508.43;999.90;;;;;;;;;;5036299;28;20056;-69
2024/01/02 02:32:01;;;;;;;1525.65;999.90;;;;;;;;;;5036416;28;20479;-69
2024/01/02 02:34:28;;;;;;;1456.07;999.90;;;;;;;;;;5059967;28;20029;-66
2024/01/02 02:36:55;;;;;;;1535.95;999.90;;;;;;;;;;5056017;28;20028;-66
2024/01/02 02:39:21;;;;;;;1508.38;999.90;;;;;;;;;;5055535;28;20025;-66
2024/01/02 02:41:48;;;;;;;1502.95;999.90;;;;;;;;;;5055910;28;20523;-66
2024/01/02 02:44:15;;;;;;;1497.35;999.90;;;;;;;;;;5055800;28;20455;-66
2024/01/02 02:46:41;;;;;;;1440.55;999.90;;;;;;;;;;5056113;28;20100;-66
2024/01/02 02:49:08;;;;;;;1388.90;999.90;;;;;;;;;;5056196;28;20468;-66
2024/01/02 02:51:34;;;;;;;1488.50;999.90;;;;;;;;;;5055767;28;20025;-65
2024/01/02 02:54:01;;;;;;;1495.22;999.90;;;;;;;;;;5055843;28;20029;-66
2024/01/02 02:56:28;;;;;;;1470.22;999.90;;;;;;;;;;5055646;28;20025;-66
2024/01/02 02:58:54;;;;;;;1395.22;999.90;;;;;;;;;;5055610;28;20442;-66
2024/01/02 03:01:22;;;;;;;1441.78;999.90;;;;;;;;;;5055586;28;20032;-66
2024/01/02 03:03:48;;;;;;;1400.05;999.90;;;;;;;;;;5057029;28;20053;-65
2024/01/02 03:06:15;;;;;;;1497.63;999.90;;;;;;;;;;5057111;28;20021;-64
2024/01/02 03:08:42;;;;;;;1505.60;999.90;;;;;;;;;;5057369;28;20104;-64
2024/01/02 03:11:08;;;;;;;1405.53;999.90;;;;;;;;;;5056200;28;20017;-64
2024/01/02 03:13:35;;;;;;;1501.95;999.90;;;;;;;;;;5056003;28;20085;-68
2024/01/02 03:16:01;;;;;;;1506.57;999.90;;;;;;;;;;5059917;28;20033;-64
2024/01/02 03:18:28;;;;;;;1498.38;999.90;;;;;;;;;;5068970;28;20104;-64
2024/01/02 03:20:55;;;;;;;1401.60;999.90;;;;;;;;;;5075730;28;20551;-65
2024/01/02 03:23:21;;;;;;;1400.68;999.90;;;;;;;;;;5076263;28;20028;-65
2024/01/02 03:25:48;;;;;;;1474.25;999.90;;;;;;;;;;5075960;28;20040;-65
2024/01/02 03:28:15;;;;;;;1506.47;999.90;;;;;;;;;;5075690;28;20031;-64
2024/01/02 03:30:42;;;;;;;1408.55;999.90;;;;;;;;;;5071003;28;20332;-65
2024/01/02 03:33:09;;;;;;;1443.22;999.90;;;;;;;;;;5055520;28;20048;-65
2024/01/02 03:35:35;;;;;;;1409.18;999.90;;;;;;;;;;5054449;28;20478;-65
2024/01/02 03:38:02;;;;;;;1492.28;999.90;;;;;;;;;;5055161;28;20039;-65
2024/01/02 03:40:29;;;;;;;1480.55;999.90;;;;;;;;;;5055122;28;20412;-66
2024/01/02 03:42:55;;;;;;;1401.22;999.90;;;;;;;;;;5055367;28;20075;-65
2024/01/02 03:45:22;;;;;;;1496.32;999.90;;;;;;;;;;5057799;28;20359;-65
2024/01/02 03:47:48;;;;;;;1414.03;999.90;;;;;;;;;;5039814;28;20025;-65
2024/01/02 03:50:15;;;;;;;1498.47;999.90;;;;;;;;;;5038113;28;20021;-65
2024/01/02 03:52:42;;;;;;;1431.93;999.90;;;;;;;;;;5054575;28;20017;-65
2024/01/02 03:55:09;;;;;;;1493.93;999.90;;;;;;;;;;5054865;28;20032;-65
2024/01/02 03:57:36;;;;;;;1427.07;999.90;;;;;;;;;;5054583;28;20032;-65
2024/01/02 04:00:04;;;;;;;1419.22;999.90;;;;;;;;;;5054383;28;20059;-65
2024/01/02 04:02:31;;;;;;;1454.35;999.90;;;;;;;;;;5054395;28;20029;-66
2024/01/02 04:04:58;;;;;;;1491.50;999.90;;;;;;;;;;5054385;28;20028;-66
2024/01/02 04:07:24;;;;;;;1514.45;999.90;;;;;;;;;;5054196;28;20025;-65
2024/01/02 04:09:51;;;;;;;1431.75;999.90;;;;;;;;;;5068985;28;20484;-64
2024/01/02 04:12:18;;;;;;;1497.82;999.90;;;;;;;;;;5072284;28;20024;-64
2024/01/02 04:14:44;;;;;;;1507.40;999.90;;;;;;;;;;5044198;28;20033;-66
2024/01/02 04:17:11;;;;;;;1436.15;999.90;;;;;;;;;;5054843;28;20112;-66
2024/01/02 04:19:37;;;;;;;1450.38;999.90;;;;;;;;;;5054229;28;20025;-66
2024/01/02 04:22:04;;;;;;;1494.88;999.90;;;;;;;;;;5053729;28;20087;-65
2024/01/02 04:24:31;;;;;;;1498.03;999.90;;;;;;;;;;5054090;28;20052;-65
2024/01/02 04:26:58;;;;;;;1520.18;999.90;;;;;;;;;;5054097;28;20529;-64
2024/01/02 04:29:24;;;;;;;1443.35;999.90;;;;;;;;;;5053936;28;20028;-66
2024/01/02 04:31:51;;;;;;;1513.43;999.90;;;;;;;;;;5053692;28;20056;-66
2024/01/02 04:34:18;;;;;;;1523.90;999.90;;;;;;;;;;5053928;28;20505;-65
2024/01/02 04:36:45;;;;;;;1521.13;999.90;;;;;;;;;;5053698;28;20060;-65
2024/01/02 04:39:11;;;;;;;1463.03;999.90;;;;;;;;;;5053774;28;20382;-66
2024/01/02 04:41:38;;;;;;;1429.28;999.90;;;;;;;;;;5053751;28;20116;-65
2024/01/02 04:44:05;;;;;;;1449.85;999.90;;;;;;;;;;5053657;28;20017;-65
2024/01/02 04:46:31;;;;;;;1488.20;999.90;;;;;;;;;;5054717;28;20024;-65
2024/01/02 04:48:58;;;;;;;1513.80;999.90;;;;;;;;;;5055034;28;20024;-65
2024/01/02 04:51:24;;;;;;;1534.45;999.90;;;;;;;;;;5053564;28;20028;-65
2024/01/02 04:53:51;;;;;;;1512.32;999.90;;;;;;;;;;5053750;28;20032;-65
2024/01/02 04:56:18;;;;;;;1520.90;999.90;;;;;;;;;;5054725;28;20116;-66
2024/01/02 04:58:45;;;;;;;1458.40;999.90;;;;;;;;;;5053579;28;20025;-66
2024/01/02 05:01:12;;;;;;;1445.00;999.90;;;;;;;;;;5053878;28;20374;-67
2024/01/02 05:03:38;;;;;;;1523.63;999.90;;;;;;;;;;5053846;28;20478;-65
2024/01/02 05:06:05;;;;;;;1462.47;999.90;;;;;;;;;;5053708;28;20021;-66
2024/01/02 05:08:31;;;;;;;1457.75;999.90;;;;;;;;;;5050814;28;20071;-64
2024/01/02 05:10:58;;;;;;;1524.75;999.90;;;;;;;;;;5050232;28;20021;-65
2024/01/02 05:13:25;;;;;;;1444.68;999.90;;;;;;;;;;5054101;28;20049;-64
2024/01/02 05:15:51;;;;;;;1464.20;999.90;;;;;;;;;;5053733;28;20052;-65
2024/01/02 05:18:18;;;;;;;1438.55;999.90;;;;;;;;;;5053981;28;20086;-64
2024/01/02 05:20:47;;;;;;;1483.30;999.90;;;;;;;;;;5055336;28;20474;-65
2024/01/02 05:23:14;;;;;;;1467.38;999.90;;;;;;;;;;5043467;28;20102;-71
2024/01/02 05:25:42;;;;;;;1458.53;999.90;;;;;;;;;;5052052;28;20021;-69
2024/01/02 05:28:08;;;;;;;1524.38;999.90;;;;;;;;;;5056852;28;20466;-70
2024/01/02 05:30:35;;;;;;;1524.13;999.90;;;;;;;;;;5061808;28;20116;-69
2024/01/02 05:33:02;;;;;;;1534.15;999.90;;;;;;;;;;5053275;28;20021;-68
2024/01/02 05:35:28;;;;;;;1520.28;999.90;;;;;;;;;;5053031;28;20025;-68
2024/01/02 05:37:55;;;;;;;1526.68;999.90;;;;;;;;;;5054015;28;20481;-69
2024/01/02 05:40:21;;;;;;;1488.47;999.90;;;;;;;;;;5052630;28;20036;-69
2024/01/02 05:42:48;;;;;;;1511.30;999.90;;;;;;;;;;5052609;28;20021;-69
2024/01/02 05:45:15;;;;;;;1527.07;999.90;;;;;;;;;;5056843;28;20437;-68
2024/01/02 05:47:41;;;;;;;1526.97;999.90;;;;;;;;;;5056224;28;20478;-68
2024/01/02 05:50:08;;;;;;;1464.22;999.90;;;;;;;;;;5058037;28;20379;-69
2024/01/02 05:52:34;;;;;;;1507.10;999.90;;;;;;;;;;5056549;28;20024;-67
2024/01/02 05:55:01;;;;;;;1458.00;999.90;;;;;;;;;;5055359;28;20020;-66
2024/01/02 05:57:28;;;;;;;1497.97;999.90;;;;;;;;;;5056543;28;20476;-66
2024/01/02 05:59:54;;;;;;;1517.55;999.90;;;;;;;;;;5056480;28;20060;-66
2024/01/02 06:02:21;;;;;;;1464.53;999.90;;;;;;;;;;5056740;28;20100;-66
2024/01/02 06:04:48;;;;;;;1479.68;999.90;;;;;;;;;;5056662;28;20021;-66
2024/01/02 06:07:14;;;;;;;1462.65;999.90;;;;;;;;;;5053634;28;20016;-66
2024/01/02 06:09:41;;;;;;;1520.20;999.90;;;;;;;;;;5056636;28;20017;-66
2024/01/02 06:12:08;;;;;;;1514.20;999.90;;;;;;;;;;5056707;28;20478;-66
2024/01/02 06:14:35;;;;;;;1498.25;999.90;;;;;;;;;;5056466;28;20055;-67
2024/01/02 06:17:03;;;;;;;1479.63;999.90;;;;;;;;;;5055570;28;20056;-68
2024/01/02 06:19:29;;;;;;;1514.30;999.90;;;;;;;;;;5055294;28;20032;-69
2024/01/02 06:21:56;;;;;;;1525.00;999.90;;;;;;;;;;5055076;28;20083;-66
2024/01/02 06:24:23;;;;;;;1523.55;999.90;;;;;;;;;;5056104;28;20112;-67
2024/01/02 06:26:49;;;;;;;1496.10;999.90;;;;;;;;;;5056027;28;20044;-66
2024/01/02 06:29:16;;;;;;;1519.00;999.90;;;;;;;;;;5055319;28;20043;-66
2024/01/02 06:31:43;;;;;;;1487.72;999.90;;;;;;;;;;5055564;28;20028;-66
2024/01/02 06:34:09;;;;;;;1520.97;999.90;;;;;;;;;;5055335;28;20082;-66
2024/01/02 06:36:36;;;;;;;1500.68;999.90;;;;;;;;;;5055373;28;20048;-66
2024/01/02 06:39:02;;;;;;;1527.32;999.90;;;;;;;;;;5055328;28;20028;-66
2024/01/02 06:41:29;;;;;;;1493.63;999.90;;;;;;;;;;5056724;28;20028;-66
2024/01/02 06:43:55;;;;;;;1522.88;999.90;;;;;;;;;;5055340;28;20025;-66
2024/01/02 06:46:22;;;;;;;1489.95;999.90;;;;;;;;;;5055198;28;20021;-66
2024/01/02 06:48:48;;;;;;;1507.03;999.90;;;;;;;;;;5055410;28;20017;-66
2024/01/02 06:51:16;;;;;;;1493.22;999.90;;;;;;;;;;5055727;28;20104;-66
2024/01/02 06:53:43;;;;;;;1537.65;999.90;;;;;;;;;;5054997;28;20017;-66
2024/01/02 06:56:09;;;;;;;1529.78;999.90;;;;;;;;;;5055614;28;20036;-66
2024/01/02 06:58:36;;;;;;;1524.30;999.90;;;;;;;;;;5055651;28;20158;-65
2024/01/02 07:01:03;;;;;;;1487.28;999.90;;;;;;;;;;5055327;28;20021;-66
2024/01/02 07:03:29;;;;;;;1531.65;999.90;;;;;;;;;;5055403;28;20032;-66
2024/01/02 07:05:56;;;;;;;1517.30;999.90;;;;;;;;;;5053889;28;20052;-65
2024/01/02 07:08:23;;;;;;;1522.80;999.90;;;;;;;;;;5047529;28;20130;-65
2024/01/02 07:10:49;;;;;;;1527.30;999.90;;;;;;;;;;5049527;28;20035;-66
2024/01/02 07:13:16;;;;;;;1529.72;999.90;;;;;;;;;;5048432;28;20025;-66
2024/01/02 07:15:42;;;;;;;1529.20;999.90;;;;;;;;;;5036012;28;20025;-66
2024/01/02 07:18:11;;;;;;;1527.22;999.90;;;;;;;;;;5034832;28;20049;-66
2024/01/02 07:20:38;;;;;;;1514.20;999.90;;;;;;;;;;5042225;28;20111;-66
2024/01/02 07:23:04;;;;;;;1528.03;999.90;;;;;;;;;;5051377;28;20103;-66
2024/01/02 07:25:31;;;;;;;1529.70;999.90;;;;;;;;;;5054101;28;20013;-67
2024/01/02 07:27:58;;;;;;;1513.30;999.90;;;;;;;;;;5054660;28;20041;-67
2024/01/02 07:30:24;;;;;;;1527.40;999.90;;;;;;;;;;5053700;28;20024;-66
2024/01/02 07:32:51;;;;;;;1512.82;999.90;;;;;;;;;;5053881;28;20512;-66
2024/01/02 07:35:17;;;;;;;1511.60;999.90;;;;;;;;;;5054423;28;20029;-68
2024/01/02 07:37:44;;;;;;;1535.97;999.90;;;;;;;;;;5053352;28;20027;-65
2024/01/02 07:40:11;;;;;;;1542.20;999.90;;;;;;;;;;5051492;28;20032;-65
2024/01/02 07:42:37;;;;;;;1525.03;999.90;;;;;;;;;;5048889;28;20033;-66
2024/01/02 07:45:04;;;;;;;1529.40;999.90;;;;;;;;;;5047942;28;20542;-66
2024/01/02 07:47:31;;;;;;;1539.85;999.90;;;;;;;;;;5054230;28;20029;-65
2024/01/02 07:49:58;;;;;;;1531.40;999.90;;;;;;;;;;5053729;28;20017;-67
2024/01/02 07:52:24;;;;;;;1523.68;999.90;;;;;;;;;;5054094;28;20073;-66
2024/01/02 07:54:51;;;;;;;1540.00;999.90;;;;;;;;;;5052839;28;20035;-67
2024/01/02 07:57:17;;;;;;;1545.72;999.90;;;;;;;;;;5050378;28;20021;-65
2024/01/02 07:59:44;;;;;;;1541.28;999.90;;;;;;;;;;5050329;28;20021;-67
2024/01/02 08:02:11;;;;;;;1529.28;999.90;;;;;;;;;;5052278;28;20024;-66
2024/01/02 08:04:38;;;;;;;1541.93;999.90;;;;;;;;;;5051613;28;20029;-66
2024/01/02 08:07:04;;;;;;;1539.63;999.90;;;;;;;;;;5047372;28;20017;-67
2024/01/02 08:09:31;;;;;;;1533.75;999.90;;;;;;;;;;5050870;28;20104;-67
2024/01/02 08:11:58;;;;;;;1524.50;999.90;;;;;;;;;;5052290;28;20409;-67
2024/01/02 08:14:24;;;;;;;1537.68;999.90;;;;;;;;;;5053425;28;20025;-67
2024/01/02 08:16:51;;;;;;;1524.72;999.90;;;;;;;;;;5052551;28;20025;-67
2024/01/02 08:19:18;;;;;;;1527.90;999.90;;;;;;;;;;5050631;28;20083;-65
2024/01/02 08:21:44;;;;;;;1530.03;999.90;;;;;;;;;;5052189;28;20040;-69
2024/01/02 08:24:11;;;;;;;1531.18;999.90;;;;;;;;;;5051524;28;20032;-66
2024/01/02 08:26:38;;;;;;;1520.40;999.90;;;;;;;;;;5052077;28;20017;-65
2024/01/02 08:29:04;;;;;;;1508.47;999.90;;;;;;;;;;5051649;28;20036;-66
2024/01/02 08:31:31;;;;;;;1518.07;999.90;;;;;;;;;;5050461;28;20117;-66
2024/01/02 08:33:57;;;;;;;1534.95;999.90;;;;;;;;;;5050705;28;20025;-66
2024/01/02 08:36:26;;;;;;;1531.80;999.90;;;;;;;;;;5051304;28;20071;-66
2024/01/02 08:38:53;;;;;;;1528.25;999.90;;;;;;;;;;5050605;28;20033;-66
2024/01/02 08:41:20;;;;;;;1508.53;999.90;;;;;;;;;;5052012;28;20029;-66
2024/01/02 08:43:47;;;;;;;1533.72;999.90;;;;;;;;;;5052043;28;20478;-67
2024/01/02 08:46:14;;;;;;;1541.60;999.90;;;;;;;;;;5052218;28;20033;-67
2024/01/02 08:48:40;;;;;;;1533.13;999.90;;;;;;;;;;5048199;28;20030;-67
2024/01/02 08:51:07;;;;;;;1512.85;999.90;;;;;;;;;;5058073;28;20021;-67
2024/01/02 08:53:34;;;;;;;1536.82;999.90;;;;;;;;;;5073136;28;20024;-67
2024/01/02 08:56:00;;;;;;;1533.05;999.90;;;;;;;;;;5060836;28;20033;-67
2024/01/02 08:58:27;;;;;;;1534.80;999.90;;;;;;;;;;5053537;28;20534;-68
2024/01/02 09:00:53;;;;;;;1526.28;999.90;;;;;;;;;;5052612;28;20075;-68
2024/01/02 09:03:20;;;;;;;1529.70;999.90;;;;;;;;;;5066547;28;20024;-67
2024/01/02 09:05:47;;;;;;;1534.32;999.90;;;;;;;;;;5073321;28;20059;-67
2024/01/02 09:08:15;;;;;;;1537.40;999.90;;;;;;;;;;5060185;28;20032;-67
2024/01/02 09:10:43;;;;;;;1541.63;999.90;;;;;;;;;;5053190;28;20504;-67
2024/01/02 09:13:11;;;;;;;1517.65;999.90;;;;;;;;;;5052792;28;20041;-67
2024/01/02 09:15:38;;;;;;;1541.35;999.90;;;;;;;;;;5052558;28;20390;-67
2024/01/02 09:18:05;;;;;;;1542.93;999.90;;;;;;;;;;5052456;28;20025;-67
2024/01/02 09:20:31;;;;;;;1528.65;999.90;;;;;;;;;;5053299;28;20413;-67
2024/01/02 09:22:58;;;;;;;1537.57;999.90;;;;;;;;;;5052406;28;20052;-67
2024/01/02 09:25:27;;;;;;;1544.75;999.90;;;;;;;;;;5052448;28;20024;-67
2024/01/02 09:27:57;;;;;;;1534.95;999.90;;;;;;;;;;5061094;28;20013;-65
2024/01/02 09:30:24;;;;;;;1519.38;999.90;;;;;;;;;;5072783;28;20059;-65
2024/01/02 09:32:51;;;;;;;1522.88;999.90;;;;;;;;;;5052923;28;20482;-65
2024/01/02 09:35:17;;;;;;;1536.47;999.90;;;;;;;;;;5039975;28;20092;-65
2024/01/02 09:37:44;;;;;;;1524.00;999.90;;;;;;;;;;5033103;28;20485;-66
2024/01/02 09:40:25;;;;;;;1531.00;999.90;;;;;;;;;;5038560;28;20034;-65
2024/01/02 09:43:04;;;;;;;1538.00;999.90;;;;;;;;;;5036509;28;20542;-65
2024/01/02 09:45:45;;;;;;;1545.50;999.90;;;;;;;;;;5052054;28;20021;-65
2024/01/02 09:48:20;;;;;;;1542.00;999.90;;;;;;;;;;5052938;28;20021;-65
2024/01/02 09:50:53;;;;;;;1518.35;999.90;;;;;;;;;;5045083;28;20384;-65
2024/01/02 09:53:39;;;;;;;1523.35;999.90;;;;;;;;;;5052991;28;20048;-68
2024/01/02 09:56:15;;;;;;;1542.40;999.90;;;;;;;;;;5032904;28;20414;-67
2024/01/02 09:58:51;;;;;;;1544.70;999.90;;;;;;;;;;5032960;28;20032;-66
2024/01/02 10:01:18;;;;;;;1520.07;999.90;;;;;;;;;;5032934;28;20021;-67
2024/01/02 10:03:54;;;;;;;1520.32;999.90;;;;;;;;;;5033087;28;20021;-67
2024/01/02 10:06:41;;;;;;;1536.07;999.90;;;;;;;;;;5032872;28;20025;-69
2024/01/02 10:09:09;;;;;;;1528.25;999.90;;;;;;;;;;5033023;28;20024;-67
2024/01/02 10:11:36;;;;;;;1543.82;999.90;;;;;;;;;;5032664;28;20488;-66
2024/01/02 10:14:11;;;;;;;1509.45;999.90;;;;;;;;;;5034018;28;20037;-67
2024/01/02 10:16:39;;;;;;;1538.45;999.90;;;;;;;;;;5032685;28;20390;-68
2024/01/02 10:19:25;;;;;;;1525.30;999.90;;;;;;;;;;5051833;28;20025;-67
2024/01/02 10:21:53;;;;;;;1547.07;999.90;;;;;;;;;;5039225;28;20133;-67
2024/01/02 10:24:26;;;;;;;1538.30;999.90;;;;;;;;;;5032907;28;20352;-67
2024/01/02 10:27:04;;;;;;;1549.85;999.90;;;;;;;;;;5032836;28;20044;-68
2024/01/02 10:29:38;;;;;;;1521.65;999.90;;;;;;;;;;5033933;28;20017;-68
2024/01/02 10:32:11;;;;;;;1563.22;999.90;;;;;;;;;;5048325;28;20425;-67
2024/01/02 10:34:41;;;;;;;1568.82;999.90;;;;;;;;;;5056088;28;20029;-68
2024/01/02 10:37:08;;;;;;;1565.43;999.90;;;;;;;;;;5056219;28;20021;-70
2024/01/02 10:39:37;;;;;;;1586.13;999.90;;;;;;;;;;5053489;28;20029;-70
2024/01/02 10:42:16;;;;;;;1590.07;999.90;;;;;;;;;;5055459;28;20048;-68
2024/01/02 10:44:45;;;;;;;1590.30;999.90;;;;;;;;;;5055710;28;20017;-68
2024/01/02 10:47:17;;;;;;;1599.90;999.90;;;;;;;;;;5055517;28;20104;-66
2024/01/02 10:49:43;;;;;;;;;;;;;;;;;;5056375;28;20017;-68
2024/01/02 10:52:12;;;;;;;1558.25;999.90;;;;;;;;;;5055880;28;19905;-68
2024/01/02 10:54:52;;;;;;;1538.63;999.90;;;;;;;;;;5055712;28;20119;-67
2024/01/02 10:57:39;;;;;;;1571.85;999.90;;;;;;;;;;5052604;28;20499;-67
2024/01/02 11:00:08;;;;;;;1582.18;999.90;;;;;;;;;;5055327;28;20041;-67
2024/01/02 11:02:43;;;;;;;1572.57;999.90;;;;;;;;;;5055105;28;20035;-66
2024/01/02 11:05:10;;;;;;;1580.82;999.90;;;;;;;;;;5055508;28;20104;-66
2024/01/02 11:07:39;;;;;;;1564.05;999.90;;;;;;;;;;5055576;28;20028;-67
2024/01/02 11:10:10;;;;;;;1566.40;999.90;;;;;;;;;;5055559;28;20021;-66
2024/01/02 11:12:46;;;;;;;1569.63;999.90;;;;;;;;;;5059764;28;20029;-66
2024/01/02 11:15:14;;;;;;;1576.68;999.90;;;;;;;;;;5075558;28;20493;-65
2024/01/02 11:17:41;;;;;;;1573.28;999.90;;;;;;;;;;5066349;28;20115;-64
2024/01/02 11:20:11;;;;;;;1562.07;999.90;;;;;;;;;;5055417;28;20021;-65
2024/01/02 11:22:46;;;;;;;1455.80;999.90;;;;;;;;;;5054631;28;20075;-65
2024/01/02 11:25:15;;;;;;;1559.03;999.90;;;;;;;;;;5054836;28;20359;-64
2024/01/02 11:27:43;;;;;;;1548.38;999.90;;;;;;;;;;5055165;28;20017;-67
2024/01/02 11:30:11;;;;;;;1546.95;999.90;;;;;;;;;;5066400;28;20546;-65
2024/01/02 11:32:38;;;;;;;1551.35;999.90;;;;;;;;;;5074320;28;20472;-65
2024/01/02 11:35:07;;;;;;;1428.35;999.90;;;;;;;;;;5075165;28;20029;-66
2024/01/02 11:37:36;;;;;;;1557.30;999.90;;;;;;;;;;5075034;28;20107;-65
2024/01/02 11:40:09;;;;;;;1568.50;999.90;;;;;;;;;;5075079;28;20500;-65
2024/01/02 11:42:43;;;;;;;1551.63;999.90;;;;;;;;;;5074741;28;20035;-66
2024/01/02 11:45:11;;;;;;;1436.07;999.90;;;;;;;;;;5058519;28;20410;-66
2024/01/02 11:47:44;;;;;;;1567.13;999.90;;;;;;;;;;5054838;28;20092;-66
2024/01/02 11:50:11;;;;;;;1471.22;999.90;;;;;;;;;;5054608;28;20017;-65
2024/01/02 11:52:58;;;;;;;1550.45;999.90;;;;;;;;;;5054554;28;20082;-65
2024/01/02 11:55:25;;;;;;;1447.35;999.90;;;;;;;;;;5053521;28;20091;-64
2024/01/02 11:57:52;;;;;;;1423.65;999.90;;;;;;;;;;5054446;28;20028;-67
2024/01/02 12:00:27;;;;;;;1431.05;999.90;;;;;;;;;;5054896;28;20025;-66
2024/01/02 12:02:57;;;;;;;1557.45;999.90;;;;;;;;;;5055071;28;20029;-67
2024/01/02 12:05:37;;;;;;;1569.13;999.90;;;;;;;;;;5055190;28;20028;-68
2024/01/02 12:08:06;;;;;;;1467.05;999.90;;;;;;;;;;5055117;28;20025;-68
2024/01/02 12:10:37;;;;;;;1558.93;999.90;;;;;;;;;;5054962;28;20062;-68
2024/01/02 12:13:13;;;;;;;1566.22;999.90;;;;;;;;;;5042243;28;20037;-68
2024/01/02 12:15:40;;;;;;;1435.88;999.90;;;;;;;;;;5046720;28;20067;-69
2024/01/02 12:18:07;;;;;;;1562.05;999.90;;;;;;;;;;5054217;28;20505;-68
2024/01/02 12:20:39;;;;;;;1553.50;999.90;;;;;;;;;;5054115;28;20105;-68
2024/01/02 12:23:05;;;;;;;1513.93;999.90;;;;;;;;;;5051395;28;20041;-67
2024/01/02 12:25:32;;;;;;;1557.63;999.90;;;;;;;;;;5053556;28;20025;-67
2024/01/02 12:28:03;;;;;;;1567.13;999.90;;;;;;;;;;5053983;28;20045;-67
2024/01/02 12:30:31;;;;;;;1558.03;999.90;;;;;;;;;;5053864;28;20032;-68
2024/01/02 12:32:59;;;;;;;1553.22;999.90;;;;;;;;;;5055692;28;20025;-67
2024/01/02 12:35:46;;;;;;;1559.50;999.90;;;;;;;;;;5053618;28;20044;-68
2024/01/02 12:38:12;;;;;;;1560.50;999.90;;;;;;;;;;5056015;28;20107;-68
2024/01/02 12:40:43;;;;;;;1561.22;999.90;;;;;;;;;;5048708;28;20029;-68
2024/01/02 12:43:12;;;;;;;1550.70;999.90;;;;;;;;;;5049198;28;20390;-67
2024/01/02 12:45:40;;;;;;;1553.18;999.90;;;;;;;;;;5052237;28;20489;-68
2024/01/02 12:48:07;;;;;;;1552.30;999.90;;;;;;;;;;5050747;28;20032;-67
2024/01/02 12:50:38;;;;;;;1441.85;999.90;;;;;;;;;;5050489;28;20017;-65
2024/01/02 12:53:09;;;;;;;1544.32;999.90;;;;;;;;;;5050414;28;20439;-65
2024/01/02 12:55:41;;;;;;;1536.90;999.90;;;;;;;;;;5052994;28;20041;-66
2024/01/02 12:58:07;;;;;;;1532.05;999.90;;;;;;;;;;5052665;28;20025;-66
2024/01/02 13:00:35;;;;;;;1540.57;999.90;;;;;;;;;;5053223;28;20120;-70
2024/01/02 13:03:02;;;;;;;1415.43;999.90;;;;;;;;;;5050860;28;20469;-67
2024/01/02 13:05:29;;;;;;;1533.78;999.90;;;;;;;;;;5053195;28;20105;-68
2024/01/02 13:07:57;;;;;;;1511.60;999.90;;;;;;;;;;5052084;28;20047;-67
2024/01/02 13:10:24;;;;;;;1541.18;999.90;;;;;;;;;;5050273;28;20347;-67
2024/01/02 13:12:53;;;;;;;1532.53;999.90;;;;;;;;;;5044567;28;20027;-65
2024/01/02 13:15:21;;;;;;;1542.95;999.90;;;;;;;;;;5051131;28;20104;-67
2024/01/02 13:17:48;;;;;;;1540.70;999.90;;;;;;;;;;5050259;28;20025;-64
2024/01/02 13:20:15;;;;;;;1525.13;999.90;;;;;;;;;;5052580;28;20476;-65
2024/01/02 13:22:42;;;;;;;1546.85;999.90;;;;;;;;;;5050254;28;20366;-66
2024/01/02 13:25:17;;;;;;;1540.28;999.90;;;;;;;;;;5046985;28;20539;-66
2024/01/02 13:27:45;;;;;;;1525.95;999.90;;;;;;;;;;5051361;28;20025;-65
2024/01/02 13:30:12;;;;;;;1543.80;999.90;;;;;;;;;;5051237;28;20489;-68
2024/01/02 13:32:39;;;;;;;1426.57;999.90;;;;;;;;;;5050898;28;20515;-64
2024/01/02 13:35:15;;;;;;;1440.45;999.90;;;;;;;;;;5051940;28;20112;-66
2024/01/02 13:37:42;;;;;;;1548.72;999.90;;;;;;;;;;5050016;28;20031;-68
2024/01/02 13:40:29;;;;;;;1560.10;999.90;;;;;;;;;;5052059;28;20043;-65
2024/01/02 13:42:57;;;;;;;1548.38;999.90;;;;;;;;;;5047411;28;20165;-66
2024/01/02 13:45:25;;;;;;;1546.47;999.90;;;;;;;;;;5051460;28;20046;-66